aviador You're here:

LZSL Decoded Metar

SLIAC in SLOVAKIA
Report Time2017-08-24 06:30:00
UTC Time2017-08-24 07:00:10
Flight Rules vfr VFR
WindCalm
Visibility9999 m
Phenomena:N/A
Clouds:N/A
Expected CloudBase > 1,200 ft AGL from Temp-Dew spread
CeilingNone
Temp11°C (ISA -2)
Dew Point08°C (82% RH)
AAT10.5°C
QNH1021 hPa
Density Alt673 ft
Elevation1,027 ft
Report Wrong Elevation
Raw Report
LZSL 240630Z 00000KT CAVOK 11/08 Q1021=

Extra information for LZSL:More info

Metar Taf Metar & Taf Last 4 Metars F.Rules Stats Wind Profile Meteogram Temp Stats Airport Information Weather charts Add Link Nearby VenuesMetar ALERT Operation Metar Decoded Social comments